Flight Track Log - Related Links

Times and Time Zones

All times are in EDT time to prevent confusion due to time zone crossing. See the LXJ262 flight status page for this flight to view local times or setup timezone preferences in your user account.

Time Position Orientation Groundspeed Altitude Reporting Facility
EDT Latitude Longitude Course Direction KTS MPH feet Rate Location/Type
Sat 04:35:27 PM 17.9833 -63.1167 298° West 260 299 7,700  Level San Juan Center
Sat 04:36:28 PM 18.0167 -63.1833 298° West 280 322 11,000 3,174 Climbing San Juan Center
Sat 04:37:28 PM 18.0500 -63.2833 289° West 350 403 14,100 3,300 Climbing San Juan Center
Sat 04:38:28 PM 18.0667 -63.3833 280° West 360 414 17,600 3,372 Climbing San Juan Center
Sat 04:39:29 PM 18.1000 -63.5000 287° West 350 403 20,900 2,876 Climbing San Juan Center
Sat 04:40:29 PM 18.1333 -63.5833 293° West 370 426 23,400 2,350 Climbing San Juan Center
Sat 04:41:29 PM 18.1667 -63.6833 289° West 370 426 25,600 2,132 Climbing San Juan Center
Sat 04:42:30 PM 18.2167 -63.8000 294° West 400 460 27,700 2,033 Climbing San Juan Center
Sat 04:43:30 PM 18.2500 -63.9167 287° West 400 460 29,700 2,000 Climbing San Juan Center
Sat 04:44:30 PM 18.3000 -64.0167 298° West 410 472 31,700 2,182 Climbing San Juan Center
Sat 04:45:31 PM 18.3500 -64.1333 294° West 400 460 34,100 2,380 Climbing San Juan Center
Sat 04:46:31 PM 18.3833 -64.2333 289° West 390 449 36,500 2,200 Climbing San Juan Center
Sat 04:47:31 PM 18.4167 -64.3333 289° West 380 437 38,500 1,600 Climbing San Juan Center
Sat 04:48:31 PM 18.4500 -64.4333 289° West 380 437 39,700 744 Climbing San Juan Center
Sat 04:49:32 PM 18.5000 -64.5500 294° West 380 437 40,000 149 Climbing San Juan Center
Sat 04:50:32 PM 18.5333 -64.6500 289° West 380 437 40,000  Level San Juan Center
Sat 04:51:32 PM 18.5667 -64.7500 289° West 370 426 40,000  Level San Juan Center
Sat 04:52:33 PM 18.6167 -64.8500 298° West 370 426 40,000  Level San Juan Center
Sat 04:53:33 PM 18.6500 -64.9667 287° West 370 426 40,000  Level San Juan Center
Sat 04:54:33 PM 18.6833 -65.0500 293° West 370 426 40,000  Level San Juan Center
Sat 04:55:33 PM 18.7167 -65.1500 289° West 370 426 40,000  Level San Juan Center
Sat 04:56:33 PM 18.7667 -65.2667 294° West 370 426 40,000  Level San Juan Center
Sat 04:57:34 PM 18.8000 -65.3667 289° West 370 426 40,000  Level San Juan Center
Sat 04:58:34 PM 18.8333 -65.4667 289° West 370 426 40,000  Level San Juan Center
Sat 04:59:34 PM 18.8667 -65.5667 289° West 370 426 40,000  Level San Juan Center
Sat 05:00:35 PM 18.9000 -65.6667 289° West 370 426 40,000  Level San Juan Center
Sat 05:01:35 PM 18.9500 -65.7667 298° West 370 426 40,000  Level San Juan Center
Sat 05:02:35 PM 18.9833 -65.8833 287° West 370 426 40,000  Level San Juan Center
Sat 05:03:36 PM 19.0167 -65.9833 289° West 360 414 40,000  Level San Juan Center
Sat 05:04:36 PM 19.0500 -66.0833 289° West 380 437 40,000  Level San Juan Center
Sat 05:05:36 PM 19.1000 -66.2000 294° West 380 437 40,000  Level San Juan Center
Sat 05:06:37 PM 19.1333 -66.2833 293° West 380 437 40,000  Level San Juan Center
Sat 05:07:37 PM 19.1667 -66.4000 287° West 380 437 40,000  Level San Juan Center
Sat 05:08:37 PM 19.2000 -66.5000 289° West 380 437 40,000  Level San Juan Center
Sat 05:09:38 PM 19.2333 -66.6167 287° West 380 437 40,000  Level San Juan Center
Sat 05:10:38 PM 19.2833 -66.7167 298° West 390 449 40,000  Level San Juan Center
Sat 05:11:38 PM 19.3167 -66.8167 289° West 390 449 40,000  Level San Juan Center
Sat 05:12:39 PM 19.3500 -66.9333 287° West 390 449 40,000  Level San Juan Center
Sat 05:13:39 PM 19.3833 -67.0333 289° West 380 437 40,000  Level San Juan Center
Sat 05:14:39 PM 19.4167 -67.1333 289° West 380 437 40,000  Level San Juan Center
Sat 05:15:39 PM 19.4667 -67.2500 294° West 380 437 40,000  Level San Juan Center
Sat 05:16:39 PM 19.5000 -67.3500 289° West 380 437 40,000  Level San Juan Center
Sat 05:17:40 PM 19.5333 -67.4667 287° West 380 437 40,000  Level San Juan Center
Sat 05:18:40 PM 19.5667 -67.5667 289° West 390 449 40,000  Level San Juan Center
Sat 05:19:40 PM 19.6000 -67.6667 290° West 390 449 40,000  Level San Juan Center
Sat 05:20:41 PM 19.6500 -67.7833 294° West 380 437 40,000  Level San Juan Center
Sat 05:21:41 PM 19.6833 -67.8833 290° West 390 449 40,000  Level San Juan Center
Sat 05:22:41 PM 19.7167 -68.0000 287° West 390 449 40,000  Level San Juan Center
Sat 05:23:42 PM 19.7500 -68.1000 290° West 390 449 40,000  Level San Juan Center
Sat 05:24:42 PM 19.7833 -68.2167 287° West 380 437 40,000  Level San Juan Center
Sat 05:25:42 PM 19.8333 -68.3167 298° West 380 437 40,000  Level San Juan Center
Sat 05:26:43 PM 19.8667 -68.4333 287° West 390 449 40,000  Level San Juan Center
Sat 05:27:51 PM 19.9106 -68.5711 289° West 391 450 40,000  Level Miami Center
Sat 05:28:51 PM 19.9472 -68.6792 290° West 396 456 40,000  Level Miami Center
Sat 05:29:51 PM 19.9842 -68.7869 290° West 396 456 40,000  Level Miami Center
Sat 05:30:51 PM 20.0369 -68.8850 300° West 396 456 40,000  Level Miami Center
Sat 05:31:51 PM 20.0983 -68.9831 304° West 396 456 40,000  Level Miami Center
Sat 05:32:51 PM 20.1636 -69.0806 306° West 396 456 40,000  Level Miami Center
Sat 05:33:51 PM 20.2244 -69.1786 303° West 401 461 40,000  Level Miami Center
Sat 05:34:51 PM 20.2875 -69.2744 305° West 401 461 40,000  Level Miami Center
Sat 05:35:51 PM 20.3528 -69.3725 305° West 401 461 40,000  Level Miami Center
Sat 05:36:51 PM 20.4156 -69.4706 304° West 401 461 40,000  Level Miami Center
Sat 05:37:51 PM 20.4764 -69.5669 304° West 401 461 40,000  Level Miami Center
Sat 05:38:51 PM 20.5394 -69.6653 304° West 401 461 40,000  Level Miami Center
Sat 05:39:51 PM 20.6022 -69.7636 304° West 401 461 40,000  Level Miami Center
Sat 05:40:51 PM 20.6650 -69.8600 305° West 401 461 40,000  Level Miami Center
Sat 05:41:51 PM 20.7211 -69.9481 304° West 401 461 40,000  Level Miami Center
Sat 05:42:51 PM 20.7836 -70.0422 305° West 401 461 40,000  Level Miami Center
Sat 05:43:51 PM 20.8442 -70.1411 303° West 401 461 40,000  Level Miami Center
Sat 05:44:51 PM 20.9067 -70.2400 304° West 401 461 40,000  Level Miami Center
Sat 05:45:51 PM 20.9692 -70.3369 305° West 401 461 40,000  Level Miami Center
Sat 05:46:51 PM 21.0294 -70.4339 304° West 401 461 40,000  Level Miami Center
Sat 05:47:51 PM 21.0919 -70.5331 304° West 401 461 40,000  Level Miami Center
Sat 05:48:51 PM 21.1564 -70.6303 305° West 401 461 40,000  Level Miami Center
Sat 05:49:51 PM 21.2186 -70.7272 305° West 401 461 40,000  Level Miami Center
Sat 05:50:51 PM 21.2789 -70.8247 304° West 401 461 40,000  Level Miami Center
Sat 05:51:51 PM 21.3411 -70.9219 305° West 401 461 40,000  Level Miami Center
Sat 05:52:51 PM 21.4031 -71.0194 304° West 395 455 40,000  Level Miami Center
Sat 05:53:51 PM 21.4697 -71.1258 304° West 395 455 40,000  Level Miami Center
Sat 05:54:51 PM 21.5297 -71.2236 303° West 395 455 40,000  Level Miami Center
Sat 05:55:51 PM 21.5986 -71.3367 303° West 436 502 40,000  Level Miami Center
Sat 05:56:51 PM 21.6561 -71.4347 302° West 418 481 40,000  Level Miami Center
Sat 05:57:51 PM 21.7181 -71.5303 305° West 406 467 40,000  Level Miami Center
Sat 05:58:51 PM 21.7800 -71.6306 304° West 401 461 40,000  Level Miami Center
Sat 05:59:51 PM 21.8439 -71.7311 304° West 401 461 40,000  Level Miami Center
Sat 06:00:51 PM 21.9036 -71.8339 302° West 401 461 40,000  Level Miami Center
Sat 06:01:51 PM 21.9650 -71.9297 305° West 395 455 40,000  Level Miami Center
Sat 06:02:51 PM 22.0267 -72.0306 303° West 400 460 40,000  Level Miami Center
Sat 06:03:51 PM 22.0864 -72.1314 303° West 400 460 40,000  Level Miami Center
Sat 06:04:51 PM 22.1478 -72.2300 304° West 400 460 40,000  Level Miami Center
Sat 06:05:51 PM 22.2092 -72.3286 304° West 400 460 40,000  Level Miami Center
Sat 06:06:51 PM 22.2686 -72.4319 302° West 400 460 40,000  Level Miami Center
Sat 06:07:51 PM 22.3319 -72.5331 304° West 400 460 40,000  Level Miami Center
Sat 06:08:51 PM 22.3914 -72.6344 302° West 400 460 40,000  Level Miami Center
Sat 06:09:51 PM 22.4525 -72.7336 304° West 400 460 40,000  Level Miami Center
Sat 06:10:51 PM 22.5114 -72.8328 303° West 400 460 40,000  Level Miami Center
Sat 06:11:51 PM 22.5725 -72.9297 304° West 395 455 40,000  Level Miami Center
Sat 06:12:51 PM 22.6272 -73.0269 301° West 389 448 40,000  Level Miami Center
Sat 06:13:51 PM 22.6922 -73.1264 305° West 394 453 40,000  Level Miami Center
Sat 06:14:51 PM 22.7403 -73.2128 301° West 388 447 40,000  Level Miami Center
Sat 06:15:51 PM 22.8033 -73.3125 304° West 388 447 40,000  Level Miami Center
Sat 06:16:51 PM 22.8664 -73.4167 303° West 398 458 40,000  Level Miami Center
Sat 06:17:51 PM 22.9269 -73.5164 303° West 398 458 40,000  Level Miami Center
Sat 06:18:51 PM 22.9878 -73.6186 303° West 398 458 40,000  Level Miami Center
Sat 06:19:51 PM 23.0442 -73.7189 301° West 398 458 40,000  Level Miami Center
Sat 06:20:51 PM 23.1047 -73.8211 303° West 398 458 40,000  Level Miami Center
Sat 06:21:51 PM 23.1653 -73.9258 302° West 398 458 40,000  Level Miami Center
Sat 06:22:51 PM 23.2239 -74.0286 302° West 398 458 40,000  Level Miami Center
Sat 06:23:51 PM 23.2883 -74.1311 304° West 398 458 40,000  Level Miami Center
Sat 06:24:51 PM 23.3467 -74.2339 302° West 403 464 40,000  Level Miami Center
Sat 06:25:51 PM 23.4069 -74.3369 303° West 403 464 40,000  Level Miami Center
Sat 06:26:51 PM 23.4692 -74.4397 303° West 403 464 40,000  Level Miami Center
Sat 06:27:51 PM 23.5292 -74.5431 302° West 403 464 40,000  Level Miami Center
Sat 06:28:51 PM 23.5894 -74.6461 303° West 403 464 40,000  Level Miami Center
Sat 06:29:51 PM 23.6494 -74.7494 302° West 403 464 40,000  Level Miami Center
Sat 06:30:51 PM 23.7092 -74.8528 302° West 403 464 40,000  Level Miami Center
Sat 06:31:51 PM 23.7692 -74.9586 302° West 403 464 40,000  Level Miami Center
Sat 06:32:51 PM 23.8311 -75.0597 304° West 403 464 40,000  Level Miami Center
Sat 06:33:51 PM 23.8908 -75.1658 302° West 408 470 40,000  Level Miami Center
Sat 06:34:51 PM 23.9506 -75.2694 302° West 408 470 40,000  Level Miami Center
Sat 06:35:51 PM 24.0100 -75.3756 302° West 408 470 40,000  Level Miami Center
Sat 06:36:51 PM 24.0717 -75.4819 302° West 408 470 40,000  Level Miami Center
Sat 06:37:51 PM 24.1311 -75.5861 302° West 408 470 40,000  Level Miami Center
Sat 06:38:51 PM 24.1925 -75.6925 302° West 408 470 40,000  Level Miami Center
Sat 06:39:51 PM 24.2497 -75.7967 301° West 408 470 40,000  Level Miami Center
Sat 06:40:51 PM 24.3111 -75.9056 302° West 408 470 40,000  Level Miami Center
Sat 06:41:51 PM 24.3703 -76.0125 301° West 408 470 40,000  Level Miami Center
Sat 06:42:51 PM 24.4314 -76.1192 302° West 408 470 40,000  Level Miami Center
Sat 06:43:51 PM 24.4906 -76.2239 302° West 408 470 40,000  Level Miami Center
Sat 06:44:51 PM 24.5517 -76.3333 302° West 408 470 40,000  Level Miami Center
Sat 06:45:51 PM 24.6125 -76.4406 302° West 408 470 40,000  Level Miami Center
Sat 06:46:51 PM 24.6714 -76.5478 301° West 408 470 40,000  Level Miami Center
Sat 06:47:51 PM 24.7322 -76.6528 303° West 408 470 40,000 -50 Level Miami Center
Sat 06:48:51 PM 24.7908 -76.7558 302° West 408 470 39,900 -250 Descending Miami Center
Sat 06:49:51 PM 24.8492 -76.8633 301° West 408 470 39,500 -500 Descending Miami Center
Sat 06:50:51 PM 24.9100 -76.9711 302° West 408 470 38,900 -700 Descending Miami Center
Sat 06:51:51 PM 24.9703 -77.0789 302° West 413 475 38,100 -450 Descending Miami Center
Sat 06:52:51 PM 25.0308 -77.1844 302° West 413 475 38,000 -150 Descending Miami Center
Sat 06:53:51 PM 25.0933 -77.2925 303° West 413 475 37,800 -450 Descending Miami Center
Sat 06:54:51 PM 25.1597 -77.4053 303° West 420 483 37,100 -700 Descending Miami Center
Sat 06:55:51 PM 25.2136 -77.5133 299° West 432 497 36,400 -550 Descending Miami Center
Sat 06:56:51 PM 25.2717 -77.6242 300° West 432 497 36,000 -200 Descending Miami Center
Sat 06:57:51 PM 25.3294 -77.7347 300° West 432 497 36,000  Level Miami Center
Sat 06:58:51 PM 25.3914 -77.8456 302° West 427 491 36,000 -100 Level Miami Center
Sat 06:59:51 PM 25.4514 -77.9567 301° West 422 486 35,800 -350 Descending Miami Center
Sat 07:00:51 PM 25.5111 -78.0700 300° West 428 493 35,300 -750 Descending Miami Center
Sat 07:01:51 PM 25.5728 -78.1836 301° West 428 493 34,300 -1,000 Descending Miami Center
Sat 07:02:51 PM 25.6133 -78.3061 290° West 423 487 33,300 -1,000 Descending Miami Center
Sat 07:03:51 PM 25.6372 -78.4356 282° West 428 493 32,300 -1,050 Descending Miami Center
Sat 07:04:51 PM 25.6628 -78.5694 282° West 428 493 31,200 -1,900 Descending Miami Center
Sat 07:05:51 PM 25.6864 -78.7011 281° West 434 499 28,500 -3,100 Descending Miami Center
Sat 07:06:51 PM 25.7078 -78.8261 281° West 434 499 25,000 -3,500 Descending Miami Center
Sat 07:07:51 PM 25.7311 -78.9486 282° West 418 481 21,500 -3,500 Descending Miami Center
Sat 07:08:51 PM 25.7503 -79.0597 281° West 394 453 18,000 -3,450 Descending Miami Center
Sat 07:09:51 PM 25.7694 -79.1708 281° West 383 441 14,600 -3,050 Descending Miami Center
Sat 07:10:51 PM 25.7867 -79.2750 280° West 356 410 11,900 -2,450 Descending Miami Center
Sat 07:11:51 PM 25.8058 -79.3794 282° West 331 381 9,700 -2,195 Descending Miami Center
Sat 07:12:13 PM 25.8114 -79.4164 279° West 306 352 8,900 -1,700 Descending Miami Center
Sat 07:12:51 PM 25.8189 -79.4650 280° West 316 364 8,000 -1,541 Descending Miami Center
Sat 07:13:27 PM 25.8303 -79.5275 281° West 288 331 7,000 -1,300 Descending Miami Center
Sat 07:13:51 PM 25.8361 -79.5508 286° West 299 344 6,700 -1,000 Descending Miami Center
Sat 07:14:27 PM 25.8433 -79.6108 278° West 277 319 6,000 -700 Descending Miami Center
Sat 07:14:51 PM 25.8533 -79.6342 295° West 294 338 6,000  Level Miami Center
Sat 07:15:28 PM 25.8753 -79.6947 292° West 285 328 6,000  Level Miami Center
Sat 07:15:51 PM 25.8875 -79.7114 309° West 288 331 6,000  Level Miami Center
Sat 07:16:30 PM 25.9092 -79.7764 290° West 286 329 6,000  Level Miami Center
Sat 07:16:51 PM 25.9192 -79.7928 304° West 283 326 6,000  Level Miami Center
Sat 07:17:30 PM 25.9450 -79.8581 294° West 289 333 6,000  Level Miami Center
Sat 07:17:51 PM 25.9531 -79.8747 298° West 283 326 6,000  Level Miami Center
Sat 07:18:31 PM 25.9789 -79.9375 295° West 289 333 6,000  Level Miami Center
Sat 07:18:51 PM 25.9892 -79.9542 304° West 288 331 6,000  Level Miami Center
Sat 07:19:32 PM 26.0211 -80.0150 300° West 292 336 6,000  Level Miami Center
Sat 07:19:51 PM 26.0356 -80.0269 323° Northwest 288 331 6,000  Level Miami Center
Sat 07:20:33 PM 26.0656 -80.0856 300° West 286 329 6,000  Level Miami Center
Sat 07:20:51 PM 26.0778 -80.1019 310° West 288 331 6,000  Level Miami Center
Sat 07:21:34 PM 26.1097 -80.1631 300° West 245 282 6,000  Level Miami Center
Sat 07:21:51 PM 26.1200 -80.1703 328° Northwest 282 325 6,000 -393 Level Miami Center
Sat 07:22:35 PM 26.1439 -80.2242 296° West 231 266 5,600 -1,086 Descending Miami Center
Sat 07:23:36 PM 26.1569 -80.2894 283° West 205 236 4,100 -787 Descending Miami Center
Sat 07:24:37 PM 26.1556 -80.3519 269° West 196 226 4,000 -148 Descending Miami Center
Sat 07:25:38 PM 26.1378 -80.3997 247° West 188 216 3,800 -393 Descending Miami Center
Sat 07:26:39 PM 26.0967 -80.3756 152° Southeast 171 197 3,200 -639 Descending Miami Center
Sat 07:27:40 PM 26.0811 -80.3242 109° East 174 200 2,500 -645 Descending Miami Center
Sat 07:28:40 PM 26.0739 -80.2731 99° East 170 196 1,900 -744 Descending Miami Center
Sat 07:29:41 PM 26.0750 -80.2222 89° East 158 182 1,000 -885 Descending Miami Center
Sat 07:31:00 PM 26.0667 -80.1500 77° East  Level FlightAware Approximate

Login

Don't have an account? Register now (free) for customized features, flight alerts, and more!